Terminal Aerodrome Forecast
Issued by NWS

Home | Current Version | Previous Version | Text Only | Print | Product List | Glossary On
Versions: 1 2 3 4 5 6 7 8 9 10 11 12 13 14 15 16 17 18 19
000
FTUS44 KBMX 302111 AAB
TAFTOI
TAF AMD
KTOI 302111Z 3021/0118 24006KT P6SM -SHRA BKN150
     FM302300 26008KT P6SM BKN250
     FM010900 20002KT 4SM BR BKN025
     FM011400 27008KT P6SM SCT250=

USA.gov is the U.S. government's official web portal to all federal, state and local government web resources and services.